Time;durP1;ratioP1;P1;durP2;ratioP2;P2;SDS_P1;SDS_P2;PMS_P1;PMS_P2;Temp;Humidity;BMP_temperature;BMP_pressure;BME280_temperature;BME280_humidity;BME280_pressure;Samples;Min_cycle;Max_cycle;Signal;HPM_P1;HPM_P2
2023/11/25 00:00:54;;;;;;;80.80;31.90;;;;;;;0.95;100.00;98422.77;1486076;88;22794;-83
2023/11/25 00:03:21;;;;;;;93.60;36.80;;;;;;;0.92;100.00;98427.77;1478639;88;21685;-82
2023/11/25 00:05:48;;;;;;;77.20;33.07;;;;;;;0.90;100.00;98424.50;1471297;88;22256;-83
2023/11/25 00:08:15;;;;;;;70.27;25.23;;;;;;;0.89;100.00;98426.29;1481715;88;21698;-83
2023/11/25 00:10:41;;;;;;;62.07;25.13;;;;;;;0.86;100.00;98426.56;1483165;88;21721;-82
2023/11/25 00:13:08;;;;;;;53.47;22.00;;;;;;;0.84;100.00;98432.38;1476935;88;22570;-82
2023/11/25 00:15:35;;;;;;;42.50;16.90;;;;;;;0.83;100.00;98441.13;1469044;88;21669;-82
2023/11/25 00:18:03;;;;;;;43.50;18.60;;;;;;;0.82;100.00;98442.09;1482518;88;22575;-82
2023/11/25 00:20:29;;;;;;;42.23;19.37;;;;;;;0.82;100.00;98439.48;1480475;88;21604;-82
2023/11/25 00:22:56;;;;;;;42.67;18.23;;;;;;;0.82;100.00;98441.27;1475373;88;22571;-83
2023/11/25 00:25:24;;;;;;;53.70;18.50;;;;;;;0.79;100.00;98450.66;1476886;88;21682;-83
2023/11/25 00:27:51;;;;;;;33.17;14.83;;;;;;;0.76;100.00;98455.66;1477055;88;21714;-83
2023/11/25 00:30:18;;;;;;;32.73;13.47;;;;;;;0.71;100.00;98455.22;1479575;88;21597;-81
2023/11/25 00:32:45;;;;;;;28.50;12.97;;;;;;;0.68;100.00;98460.70;1472804;88;21743;-82
2023/11/25 00:35:11;;;;;;;39.93;18.93;;;;;;;0.60;100.00;98469.16;1477451;88;21639;-79
2023/11/25 00:37:40;;;;;;;45.30;22.43;;;;;;;0.58;100.00;98468.49;1480593;88;21695;-81
2023/11/25 00:40:10;;;;;;;44.43;19.83;;;;;;;0.57;100.00;98472.03;1474458;88;21729;-81
2023/11/25 00:42:41;;;;;;;28.55;14.13;;;;;;;0.55;100.00;98476.56;1481576;88;21853;-82
2023/11/25 00:45:07;;;;;;;11.80;7.13;;;;;;;0.50;100.00;98488.33;1466801;88;21456;-83
2023/11/25 00:47:36;;;;;;;17.07;9.07;;;;;;;0.41;100.00;98493.36;1473340;88;21595;-83
2023/11/25 00:50:05;;;;;;;19.47;9.47;;;;;;;0.18;100.00;98491.87;1478667;88;21543;-81
2023/11/25 00:52:31;;;;;;;22.20;9.63;;;;;;;0.08;100.00;98492.29;1482644;88;22380;-82
2023/11/25 00:54:57;;;;;;;18.90;10.53;;;;;;;0.01;100.00;98496.38;1476056;88;21630;-82
2023/11/25 00:57:24;;;;;;;18.13;9.97;;;;;;;-0.02;100.00;98497.45;1477431;88;21642;-82
2023/11/25 00:59:50;;;;;;;20.50;11.37;;;;;;;-0.05;100.00;98497.70;1480321;88;22547;-82
2023/11/25 01:02:16;;;;;;;29.03;14.77;;;;;;;-0.05;100.00;98508.92;1482269;88;21688;-81
2023/11/25 01:04:42;;;;;;;31.00;15.77;;;;;;;-0.04;100.00;98507.14;1488868;88;21773;-81
2023/11/25 01:07:12;;;;;;;28.30;13.90;;;;;;;-0.07;100.00;98501.72;1481977;88;22476;-82
2023/11/25 01:09:38;;;;;;;29.83;15.03;;;;;;;-0.08;100.00;98496.18;1478910;88;21645;-80
2023/11/25 01:12:07;;;;;;;27.70;15.17;;;;;;;-0.09;100.00;98491.91;1482069;88;21537;-80
2023/11/25 01:14:33;;;;;;;29.53;14.10;;;;;;;-0.07;100.00;98492.62;1480984;88;21642;-79
2023/11/25 01:17:00;;;;;;;23.87;13.63;;;;;;;-0.04;100.00;98494.96;1484795;88;22380;-80
2023/11/25 01:19:27;;;;;;;27.63;14.30;;;;;;;0.00;100.00;98494.25;1472471;88;21456;-79
2023/11/25 01:21:54;;;;;;;27.73;14.13;;;;;;;0.02;100.00;98490.20;1467325;88;22612;-79
2023/11/25 01:24:20;;;;;;;23.17;13.73;;;;;;;0.02;100.00;98493.63;1479847;88;21486;-83
2023/11/25 01:26:47;;;;;;;36.63;14.60;;;;;;;0.02;100.00;98486.30;1477682;88;21611;-80
2023/11/25 01:29:13;;;;;;;28.87;14.57;;;;;;;0.04;100.00;98483.11;1483753;88;22574;-81
2023/11/25 01:31:40;;;;;;;24.37;14.73;;;;;;;0.02;100.00;98473.30;1482597;88;21562;-80
2023/11/25 01:34:06;;;;;;;31.83;16.67;;;;;;;-0.01;100.00;98464.79;1479414;88;22483;-80
2023/11/25 01:36:32;;;;;;;27.80;15.17;;;;;;;-0.02;100.00;98461.86;1474902;88;21597;-81
2023/11/25 01:38:59;;;;;;;28.70;15.60;;;;;;;-0.08;100.00;98451.97;1479305;88;21781;-80
2023/11/25 01:41:25;;;;;;;29.53;15.67;;;;;;;-0.11;100.00;98439.70;1480646;88;22635;-80
2023/11/25 01:43:54;;;;;;;32.73;17.23;;;;;;;-0.11;100.00;98439.23;1484559;88;21485;-81
2023/11/25 01:46:36;;;;;;;28.70;15.77;;;;;;;-0.11;100.00;98431.91;1480621;88;22562;-81
2023/11/25 01:49:04;;;;;;;24.80;13.67;;;;;;;-0.09;100.00;98420.88;1478856;88;21675;-80
2023/11/25 01:51:31;;;;;;;29.13;15.97;;;;;;;-0.07;100.00;98414.59;1477626;88;21691;-80
2023/11/25 01:53:59;;;;;;;27.73;15.43;;;;;;;-0.07;100.00;98414.59;1484255;88;21641;-81
2023/11/25 01:56:28;;;;;;;23.90;14.60;;;;;;;-0.10;100.00;98412.74;1475700;88;21644;-79
2023/11/25 01:58:57;;;;;;;28.67;15.73;;;;;;;-0.15;100.00;98424.81;1478927;88;21795;-80
2023/11/25 02:01:25;;;;;;;35.00;15.87;;;;;;;-0.22;100.00;98425.00;1480462;88;21683;-80
2023/11/25 02:03:51;;;;;;;31.87;14.80;;;;;;;-0.31;100.00;98425.77;1476642;88;21887;-79
2023/11/25 02:06:19;;;;;;;28.17;16.07;;;;;;;-0.38;100.00;98426.73;1482663;88;22548;-78
2023/11/25 02:08:46;;;;;;;30.60;16.60;;;;;;;-0.39;100.00;98432.08;1480562;88;21677;-79
2023/11/25 02:11:12;;;;;;;28.63;15.60;;;;;;;-0.43;100.00;98424.16;1487548;88;21654;-79
2023/11/25 02:13:38;;;;;;;25.57;14.00;;;;;;;-0.47;100.00;98424.42;1487144;88;21685;-79
2023/11/25 02:16:06;;;;;;;30.17;16.20;;;;;;;-0.52;100.00;98439.59;1477532;88;21610;-79
2023/11/25 02:18:32;;;;;;;26.93;15.80;;;;;;;-0.55;100.00;98445.49;1480555;88;21560;-80
2023/11/25 02:21:02;;;;;;;28.47;16.80;;;;;;;-0.59;100.00;98442.81;1452381;88;22607;-80
2023/11/25 02:23:28;;;;;;;29.30;15.87;;;;;;;-0.62;100.00;98443.88;1480718;88;22933;-80
2023/11/25 02:25:54;;;;;;;35.87;19.00;;;;;;;-0.67;100.00;98443.42;1474966;88;22695;-80
2023/11/25 02:28:21;;;;;;;32.23;18.43;;;;;;;-0.71;100.00;98453.73;1478969;88;22036;-80
2023/11/25 02:30:48;;;;;;;31.87;19.27;;;;;;;-0.76;100.00;98452.79;1483410;88;21798;-80
2023/11/25 02:33:16;;;;;;;32.03;17.13;;;;;;;-0.85;100.00;98452.72;1481158;88;21712;-80
2023/11/25 02:35:46;;;;;;;41.03;20.07;;;;;;;-0.98;100.00;98453.71;1480143;88;22413;-78
2023/11/25 02:38:16;;;;;;;28.83;17.80;;;;;;;-1.00;100.00;98445.21;1476019;88;21542;-80
2023/11/25 02:40:48;;;;;;;30.83;17.07;;;;;;;-1.16;100.00;98455.16;1484427;88;21662;-80
2023/11/25 02:43:14;;;;;;;27.33;16.90;;;;;;;-1.24;100.00;98453.16;1481193;88;21809;-80
2023/11/25 02:45:42;;;;;;;37.57;19.60;;;;;;;-1.30;100.00;98464.51;1473559;88;21521;-79
2023/11/25 02:48:09;;;;;;;25.27;15.30;;;;;;;-1.31;100.00;98467.58;1482675;88;21613;-80
2023/11/25 02:50:36;;;;;;;27.93;17.43;;;;;;;-1.40;100.00;98457.92;1481394;88;22667;-80
2023/11/25 02:53:04;;;;;;;29.67;17.73;;;;;;;-1.36;100.00;98453.66;1473886;88;21665;-79
2023/11/25 02:55:31;;;;;;;32.70;18.27;;;;;;;-1.33;100.00;98453.07;1483741;88;21816;-80
2023/11/25 02:57:57;;;;;;;32.30;20.03;;;;;;;-1.29;100.00;98438.92;1478827;88;22518;-79
2023/11/25 03:03:00;;;;;;;26.50;16.70;;;;;;;-1.18;100.00;98441.47;1477142;88;21718;-80
2023/11/25 03:05:25;;;;;;;36.00;18.73;;;;;;;-1.14;100.00;98437.70;1485876;88;22199;-80
2023/11/25 03:07:51;;;;;;;30.00;18.77;;;;;;;-1.12;100.00;98442.30;1477064;88;21618;-79
2023/11/25 03:10:17;;;;;;;29.77;17.07;;;;;;;-1.11;100.00;98447.02;1484615;88;21815;-80
2023/11/25 03:12:47;;;;;;;26.53;17.67;;;;;;;-1.06;100.00;98449.59;1482844;88;21724;-79
2023/11/25 03:15:13;;;;;;;25.30;14.13;;;;;;;-1.01;100.00;98450.52;1479820;88;21522;-80
2023/11/25 03:17:40;;;;;;;23.50;15.37;;;;;;;-1.01;100.00;98443.54;1473070;88;21786;-80
2023/11/25 03:20:07;;;;;;;26.43;14.47;;;;;;;-0.99;100.00;98452.05;1483156;88;22691;-80
2023/11/25 03:22:34;;;;;;;23.77;15.43;;;;;;;-0.97;100.00;98467.52;1484971;88;22182;-82
2023/11/25 03:25:01;;;;;;;28.70;14.80;;;;;;;-0.97;100.00;98463.14;1472833;88;22558;-82
2023/11/25 03:27:28;;;;;;;21.43;13.83;;;;;;;-0.93;100.00;98471.50;1480899;88;21455;-81
2023/11/25 03:29:55;;;;;;;25.27;14.93;;;;;;;-0.91;100.00;98467.84;1474941;88;21838;-82
2023/11/25 03:32:22;;;;;;;17.70;12.17;;;;;;;-0.92;100.00;98472.69;1453789;88;21566;-82
2023/11/25 03:34:48;;;;;;;32.47;14.80;;;;;;;-1.02;100.00;98466.58;1475323;88;21653;-81
2023/11/25 03:37:14;;;;;;;19.63;10.77;;;;;;;-1.13;100.00;98456.21;1487479;88;21705;-80
2023/11/25 03:39:40;;;;;;;22.90;12.93;;;;;;;-1.23;100.00;98456.13;1482281;88;21647;-81
2023/11/25 03:42:06;;;;;;;20.27;12.23;;;;;;;-1.30;100.00;98463.21;1483628;88;21663;-80
2023/11/25 03:44:34;;;;;;;20.53;13.20;;;;;;;-1.41;100.00;98459.70;1479984;88;22400;-82
2023/11/25 03:47:03;;;;;;;20.30;14.23;;;;;;;-1.52;100.00;98464.08;1483214;88;21599;-81
2023/11/25 03:49:30;;;;;;;17.57;13.20;;;;;;;-1.50;100.00;98465.59;1482258;88;22534;-82
2023/11/25 03:51:57;;;;;;;21.30;13.30;;;;;;;-1.51;100.00;98454.86;1481198;88;21561;-82
2023/11/25 03:54:23;;;;;;;21.53;14.30;;;;;;;-1.46;100.00;98454.52;1482002;88;21665;-80
2023/11/25 03:56:49;;;;;;;20.17;13.37;;;;;;;-1.46;100.00;98450.15;1481728;88;21669;-82
2023/11/25 03:59:15;;;;;;;39.07;18.37;;;;;;;-1.45;100.00;98451.79;1455539;88;21804;-82
2023/11/25 04:01:44;;;;;;;25.23;15.57;;;;;;;-1.44;100.00;98446.13;1459237;88;21566;-83
2023/11/25 04:04:11;;;;;;;20.93;13.30;;;;;;;-1.43;100.00;98457.69;1476535;88;21522;-83
2023/11/25 04:06:37;;;;;;;25.03;14.80;;;;;;;-1.52;100.00;98464.90;1479507;88;22499;-82
2023/11/25 04:09:04;;;;;;;17.10;11.30;;;;;;;-1.52;100.00;98468.80;1481727;88;21528;-82
2023/11/25 04:11:31;;;;;;;25.63;13.03;;;;;;;-1.51;100.00;98469.13;1479972;88;21589;-83
2023/11/25 04:13:57;;;;;;;19.20;12.33;;;;;;;-1.53;100.00;98468.42;1471198;88;21936;-81
2023/11/25 04:16:26;;;;;;;21.73;15.10;;;;;;;-1.57;100.00;98472.69;1478537;88;21557;-83
2023/11/25 04:18:54;;;;;;;16.80;10.97;;;;;;;-1.62;100.00;98479.52;1474293;88;21655;-80
2023/11/25 04:21:21;;;;;;;17.23;10.63;;;;;;;-1.65;100.00;98483.17;1478000;88;21591;-81
2023/11/25 04:23:55;;;;;;;17.80;13.63;;;;;;;-1.68;100.00;98481.28;1474695;88;21753;-82
2023/11/25 04:26:21;;;;;;;22.73;10.98;;;;;;;-1.70;100.00;98487.05;1479391;88;21589;-82
2023/11/25 04:28:48;;;;;;;17.83;11.03;;;;;;;-1.71;100.00;98491.90;1456027;88;21381;-82
2023/11/25 04:31:14;;;;;;;15.43;10.70;;;;;;;-1.76;100.00;98498.72;1477944;88;21575;-80
2023/11/25 04:33:41;;;;;;;15.40;11.57;;;;;;;-1.83;100.00;98490.59;1478941;88;21925;-81
2023/11/25 04:36:11;;;;;;;16.00;11.63;;;;;;;-1.82;100.00;98493.53;1471308;88;22620;-81
2023/11/25 04:38:38;;;;;;;13.40;9.95;;;;;;;-1.78;100.00;98485.52;1484313;88;21469;-79
2023/11/25 04:41:04;;;;;;;15.53;11.57;;;;;;;-1.85;100.00;98485.98;1480755;88;21331;-82
2023/11/25 04:43:30;;;;;;;15.17;11.57;;;;;;;-1.84;100.00;98491.55;1480729;88;21740;-81
2023/11/25 04:45:59;;;;;;;37.33;23.50;;;;;;;-1.88;100.00;98498.36;1477713;88;22088;-82
2023/11/25 04:48:25;;;;;;;17.55;12.03;;;;;;;-1.90;100.00;98496.34;1480064;88;22269;-82
2023/11/25 04:50:51;;;;;;;18.67;12.93;;;;;;;-1.86;100.00;98506.38;1482343;88;21496;-81
2023/11/25 04:53:17;;;;;;;17.20;11.63;;;;;;;-1.84;100.00;98504.52;1473909;88;21396;-82
2023/11/25 04:55:43;;;;;;;16.60;11.77;;;;;;;-1.79;100.00;98500.73;1484264;88;21375;-82
2023/11/25 04:58:10;;;;;;;17.03;11.57;;;;;;;-1.80;100.00;98504.28;1478934;88;21585;-82
2023/11/25 05:00:36;;;;;;;26.73;16.42;;;;;;;-1.80;100.00;98510.28;1482654;88;22535;-82
2023/11/25 05:03:05;;;;;;;25.85;15.00;;;;;;;-1.76;100.00;98516.05;1484905;88;21389;-83
2023/11/25 05:05:32;;;;;;;15.50;11.03;;;;;;;-1.73;100.00;98523.59;1481070;88;21657;-81
2023/11/25 05:07:58;;;;;;;18.10;12.13;;;;;;;-1.67;100.00;98512.75;1474328;88;22658;-84
2023/11/25 05:10:24;;;;;;;19.03;12.90;;;;;;;-1.64;100.00;98502.14;1480070;88;22159;-84
2023/11/25 05:12:50;;;;;;;17.23;11.60;;;;;;;-1.62;100.00;98498.97;1486666;88;21362;-83
2023/11/25 05:15:18;;;;;;;17.27;11.93;;;;;;;-1.58;100.00;98493.92;1489080;88;22872;-83
2023/11/25 05:17:44;;;;;;;18.77;12.60;;;;;;;-1.57;100.00;98498.63;1485218;88;21433;-84
2023/11/25 05:20:15;;;;;;;15.83;11.87;;;;;;;-1.63;100.00;98509.00;1488380;88;21671;-83
2023/11/25 05:22:39;;;;;;;14.57;10.97;;;;;;;-1.64;100.00;98508.19;1473763;88;22783;-83
2023/11/25 05:25:05;;;;;;;15.70;10.80;;;;;;;-1.68;100.00;98512.41;1459111;88;22328;-84
2023/11/25 05:27:32;;;;;;;21.03;11.47;;;;;;;-1.72;100.00;98508.41;1488277;88;22396;-80
2023/11/25 05:29:58;;;;;;;13.57;10.00;;;;;;;-1.74;100.00;98505.10;1480190;88;21626;-82
2023/11/25 05:32:24;;;;;;;14.93;9.93;;;;;;;-1.72;100.00;98505.82;1465101;88;21632;-82
2023/11/25 05:34:52;;;;;;;17.67;10.55;;;;;;;-1.70;100.00;98498.72;1477820;88;21819;-82
2023/11/25 05:37:19;;;;;;;12.87;9.97;;;;;;;-1.66;100.00;98496.27;1478998;88;21315;-83
2023/11/25 05:39:45;;;;;;;14.87;9.70;;;;;;;-1.65;100.00;98501.80;1480696;88;21685;-83
2023/11/25 05:42:13;;;;;;;15.40;10.38;;;;;;;-1.68;100.00;98502.86;1476064;88;21620;-80
2023/11/25 05:44:39;;;;;;;15.23;10.70;;;;;;;-1.74;100.00;98498.63;1474013;88;22343;-83
2023/11/25 05:47:06;;;;;;;14.17;9.90;;;;;;;-1.85;100.00;98492.47;1474113;88;21808;-82
2023/11/25 05:49:32;;;;;;;14.83;10.10;;;;;;;-1.88;100.00;98483.63;1475566;88;21665;-82
2023/11/25 05:51:58;;;;;;;12.40;9.27;;;;;;;-1.92;100.00;98485.29;1457877;88;22073;-82
2023/11/25 05:54:24;;;;;;;17.80;9.83;;;;;;;-1.95;100.00;98481.63;1467006;88;21698;-82
2023/11/25 05:56:50;;;;;;;18.47;11.47;;;;;;;-1.91;100.00;98470.89;1470703;88;22203;-83
2023/11/25 05:59:17;;;;;;;16.77;10.67;;;;;;;-1.91;100.00;98470.89;1473305;88;22816;-84
2023/11/25 06:01:43;;;;;;;16.33;11.03;;;;;;;-1.79;100.00;98476.09;1469246;88;21672;-83
2023/11/25 06:04:10;;;;;;;16.90;11.00;;;;;;;-1.70;100.00;98483.16;1474585;88;22932;-82
2023/11/25 06:06:38;;;;;;;19.12;13.50;;;;;;;-1.59;100.00;98484.47;1474085;88;21554;-83
2023/11/25 06:09:06;;;;;;;17.60;12.50;;;;;;;-1.50;100.00;98475.96;1474364;88;21308;-80
2023/11/25 06:11:37;;;;;;;18.27;11.13;;;;;;;-1.41;100.00;98481.76;1478453;88;21895;-80
2023/11/25 06:14:00;;;;;;;16.67;11.63;;;;;;;-1.40;100.00;98482.10;1477501;88;22175;-81
2023/11/25 06:16:29;;;;;;;15.20;10.30;;;;;;;-1.39;100.00;98487.63;1480096;88;21663;-81
2023/11/25 06:18:55;;;;;;;13.60;9.73;;;;;;;-1.37;100.00;98484.94;1474367;88;22451;-82
2023/11/25 06:21:22;;;;;;;13.60;9.27;;;;;;;-1.35;100.00;98494.73;1474135;88;21722;-80
2023/11/25 06:23:50;;;;;;;15.63;9.67;;;;;;;-1.41;100.00;98507.71;1475087;88;22647;-83
2023/11/25 06:26:19;;;;;;;13.00;8.60;;;;;;;-1.45;100.00;98510.17;1474535;88;21552;-84
2023/11/25 06:28:47;;;;;;;17.03;10.43;;;;;;;-1.44;100.00;98514.44;1481523;88;21670;-84
2023/11/25 06:31:15;;;;;;;13.07;9.40;;;;;;;-1.42;100.00;98508.63;1454419;88;21626;-85
2023/11/25 06:33:42;;;;;;;13.53;9.07;;;;;;;-1.37;100.00;98513.00;1473508;88;22652;-79
2023/11/25 06:36:11;;;;;;;10.50;7.67;;;;;;;-1.30;100.00;98519.83;1464821;88;21665;-80
2023/11/25 06:38:39;;;;;;;12.73;8.67;;;;;;;-1.27;100.00;98524.78;1471231;88;21656;-81
2023/11/25 06:41:07;;;;;;;16.13;9.67;;;;;;;-1.25;100.00;98526.80;1471747;88;21673;-83
2023/11/25 06:43:33;;;;;;;16.73;9.60;;;;;;;-1.20;100.00;98527.75;1473731;88;22633;-82
2023/11/25 06:45:59;;;;;;;13.70;9.10;;;;;;;-1.15;100.00;98526.45;1479866;88;21590;-82
2023/11/25 06:48:26;;;;;;;16.60;10.20;;;;;;;-1.12;100.00;98537.06;1476944;88;21577;-83
2023/11/25 06:50:53;;;;;;;16.03;10.60;;;;;;;-1.04;100.00;98542.45;1469212;88;21633;-81
2023/11/25 06:53:19;;;;;;;18.23;9.47;;;;;;;-0.97;100.00;98547.54;1476114;88;22530;-81
2023/11/25 06:55:46;;;;;;;18.47;9.93;;;;;;;-0.94;100.00;98549.89;1486033;88;21659;-81
2023/11/25 06:58:13;;;;;;;14.80;10.73;;;;;;;-0.91;100.00;98544.45;1469492;88;21690;-81
2023/11/25 07:00:41;;;;;;;16.07;10.17;;;;;;;-0.89;100.00;98542.20;1482593;88;21713;-80
2023/11/25 07:03:09;;;;;;;17.13;11.83;;;;;;;-0.91;100.00;98544.45;1478543;88;21639;-81
2023/11/25 07:05:36;;;;;;;13.87;10.30;;;;;;;-0.88;100.00;98538.67;1480392;88;21693;-83
2023/11/25 07:08:05;;;;;;;14.70;9.53;;;;;;;-0.87;100.00;98538.53;1472837;88;21442;-84
2023/11/25 07:10:34;;;;;;;15.53;9.87;;;;;;;-0.96;100.00;98549.17;1473123;88;21586;-84
2023/11/25 07:13:05;;;;;;;18.37;11.77;;;;;;;-0.99;100.00;98540.81;1472814;88;21636;-79
2023/11/25 07:15:32;;;;;;;18.65;11.95;;;;;;;-0.98;100.00;98551.09;1481150;88;21761;-81
2023/11/25 07:17:59;;;;;;;17.93;10.23;;;;;;;-0.93;100.00;98555.42;1478257;88;21279;-82
2023/11/25 07:20:25;;;;;;;24.03;11.97;;;;;;;-0.87;100.00;98559.31;1475531;88;21819;-82
2023/11/25 07:22:52;;;;;;;13.87;10.00;;;;;;;-0.99;100.00;98560.28;1479960;88;21702;-83
2023/11/25 07:25:18;;;;;;;26.03;12.73;;;;;;;-1.01;100.00;98568.66;1481285;88;21640;-80
2023/11/25 07:27:45;;;;;;;15.67;11.33;;;;;;;-0.99;100.00;98571.49;1480390;88;22661;-81
2023/11/25 07:30:13;;;;;;;16.50;11.33;;;;;;;-0.90;100.00;98564.75;1476872;88;21674;-80
2023/11/25 07:32:40;;;;;;;18.50;11.77;;;;;;;-0.79;100.00;98564.73;1463683;88;21670;-81
2023/11/25 07:35:07;;;;;;;17.37;10.47;;;;;;;-0.74;100.00;98563.09;1471690;88;22375;-80
2023/11/25 07:37:35;;;;;;;18.33;11.43;;;;;;;-0.68;100.00;98569.09;1472609;88;21723;-85
2023/11/25 07:40:16;;;;;;;18.30;11.40;;;;;;;-0.64;100.00;98569.19;1470685;88;21781;-82
2023/11/25 07:42:39;;;;;;;18.83;12.57;;;;;;;-0.61;100.00;98568.94;1472683;88;22758;-81
2023/11/25 07:45:09;;;;;;;18.80;11.87;;;;;;;-0.49;100.00;98564.08;1480604;88;22342;-82
2023/11/25 07:47:37;;;;;;;17.57;11.83;;;;;;;-0.40;100.00;98567.72;1480532;88;21557;-76
2023/11/25 07:50:05;;;;;;;18.17;10.90;;;;;;;-0.28;100.00;98572.39;1472864;88;21689;-80
2023/11/25 07:52:31;;;;;;;17.17;10.50;;;;;;;-0.26;100.00;98563.98;1480532;88;21616;-80
2023/11/25 07:54:58;;;;;;;24.27;13.00;;;;;;;-0.18;100.00;98556.38;1480136;88;21617;-81
2023/11/25 07:57:24;;;;;;;21.00;11.83;;;;;;;-0.11;100.00;98556.73;1482133;88;22469;-81
2023/11/25 07:59:50;;;;;;;17.90;11.00;;;;;;;-0.04;100.00;98550.05;1478401;88;21864;-78
2023/11/25 08:02:17;;;;;;;20.90;11.70;;;;;;;-0.10;100.00;98547.96;1485251;88;21618;-80
2023/11/25 08:04:44;;;;;;;16.53;10.73;;;;;;;-0.03;100.00;98538.69;1479497;88;22361;-79
2023/11/25 08:07:11;;;;;;;21.00;11.90;;;;;;;-0.01;100.00;98536.80;1475365;88;21858;-78
2023/11/25 08:09:42;;;;;;;17.27;10.93;;;;;;;0.05;100.00;98538.89;1485605;88;21567;-80
2023/11/25 08:12:09;;;;;;;;;;;;;;;0.07;100.00;98534.88;1475232;88;22511;-80
2023/11/25 08:14:36;;;;;;;19.47;12.00;;;;;;;0.14;100.00;98537.30;1403197;88;20276;-80
2023/11/25 08:17:03;;;;;;;18.30;12.07;;;;;;;0.24;100.00;98535.59;1403540;88;21490;-80
2023/11/25 08:19:29;;;;;;;15.97;10.10;;;;;;;0.39;100.00;98542.10;1409026;88;21601;-79
2023/11/25 08:21:55;;;;;;;18.70;12.20;;;;;;;0.38;100.00;98535.26;1403772;88;21449;-80
2023/11/25 08:24:23;;;;;;;19.40;11.13;;;;;;;0.35;100.00;98530.31;1403757;88;21542;-81
2023/11/25 08:26:50;;;;;;;29.67;18.07;;;;;;;0.43;100.00;98530.50;1407946;88;21517;-78
2023/11/25 08:29:17;;;;;;;26.33;16.23;;;;;;;0.55;100.00;98523.91;1402548;88;21530;-79
2023/11/25 08:31:43;;;;;;;28.87;15.53;;;;;;;0.69;100.00;98518.31;1402444;88;21554;-80
2023/11/25 08:34:11;;;;;;;31.43;15.47;;;;;;;0.84;100.00;98528.73;1404464;88;21558;-80
2023/11/25 08:36:44;;;;;;;28.03;15.47;;;;;;;1.04;100.00;98540.52;1564914;88;21739;-80
2023/11/25 08:39:08;;;;;;;26.83;13.50;;;;;;;1.13;100.00;98544.92;1529433;88;21809;-80
2023/11/25 08:41:34;;;;;;;24.07;14.67;;;;;;;1.13;100.00;98544.92;1402923;88;21606;-80
2023/11/25 08:44:01;;;;;;;22.47;13.73;;;;;;;1.30;100.00;98544.76;1409480;88;21967;-79
2023/11/25 08:46:27;;;;;;;47.03;24.33;;;;;;;1.30;100.00;98544.76;1409922;88;22565;-78
2023/11/25 08:48:53;;;;;;;140.07;72.93;;;;;;;1.20;100.00;98552.54;1485958;88;21878;-80
2023/11/25 08:51:20;;;;;;;27.30;15.50;;;;;;;1.20;100.00;98552.54;1479632;88;22068;-80
2023/11/25 08:53:47;;;;;;;26.00;14.40;;;;;;;1.29;100.00;98555.64;1481373;88;22082;-80
2023/11/25 08:56:14;;;;;;;24.47;14.13;;;;;;;1.30;100.00;98560.39;1478826;88;22907;-79
2023/11/25 08:58:40;;;;;;;45.93;24.57;;;;;;;1.30;100.00;98560.39;1479211;88;22894;-79
2023/11/25 09:01:08;;;;;;;23.00;12.57;;;;;;;1.32;100.00;98567.13;1455409;88;22046;-79
2023/11/25 09:03:36;;;;;;;23.67;12.27;;;;;;;1.06;100.00;98582.87;1476542;88;21767;-78
2023/11/25 09:06:02;;;;;;;27.07;15.17;;;;;;;1.06;100.00;98582.87;1484325;88;21796;-80
2023/11/25 09:08:28;;;;;;;48.57;28.47;;;;;;;1.12;100.00;98584.95;1478091;88;22659;-80
2023/11/25 09:10:56;;;;;;;42.47;23.23;;;;;;;1.23;100.00;98579.63;1456960;88;21939;-79
2023/11/25 09:13:22;;;;;;;32.53;18.03;;;;;;;1.23;100.00;98579.63;1485411;88;21814;-80
2023/11/25 09:15:50;;;;;;;26.37;15.33;;;;;;;1.26;100.00;98577.24;1456514;88;22722;-80
2023/11/25 09:18:18;;;;;;;27.50;15.70;;;;;;;1.32;100.00;98581.46;1480571;88;21914;-79
2023/11/25 09:20:45;;;;;;;27.80;16.27;;;;;;;1.32;100.00;98581.46;1473082;88;22775;-79
2023/11/25 09:23:12;;;;;;;32.13;16.00;;;;;;;1.34;100.00;98579.52;1480193;88;22896;-76
2023/11/25 09:25:38;;;;;;;23.70;15.13;;;;;;;1.40;100.00;98576.86;1482406;88;21823;-79
2023/11/25 09:28:04;;;;;;;27.63;16.50;;;;;;;1.46;100.00;98574.20;1483544;88;21811;-79
2023/11/25 09:30:31;;;;;;;28.97;18.30;;;;;;;1.46;100.00;98574.20;1487587;88;21918;-80
2023/11/25 09:32:58;;;;;;;30.33;16.50;;;;;;;1.45;100.00;98560.83;1484175;88;21831;-80
2023/11/25 09:35:25;;;;;;;26.37;16.07;;;;;;;1.33;100.00;98565.34;1483458;88;22063;-79
2023/11/25 09:37:51;;;;;;;22.27;13.50;;;;;;;1.33;100.00;98565.34;1478547;88;22785;-80
2023/11/25 09:40:19;;;;;;;25.37;14.53;;;;;;;1.36;100.00;98562.46;1478091;88;21893;-80
2023/11/25 09:42:47;;;;;;;27.97;16.83;;;;;;;1.37;100.00;98563.28;1448648;88;22017;-79
2023/11/25 09:45:14;;;;;;;29.13;15.17;;;;;;;1.48;100.00;98573.59;1479837;88;22144;-80
2023/11/25 09:47:46;;;;;;;32.27;16.80;;;;;;;1.53;100.00;98571.41;1472577;88;21767;-79
2023/11/25 09:50:14;;;;;;;36.63;20.20;;;;;;;1.60;100.00;98564.67;1478885;88;21874;-81
2023/11/25 09:52:50;;;;;;;40.00;18.80;;;;;;;1.60;100.00;98564.67;1457278;88;21927;-80
2023/11/25 09:55:18;;;;;;;32.13;17.93;;;;;;;1.55;100.00;98573.38;1460374;88;22484;-80
2023/11/25 09:57:49;;;;;;;33.77;17.53;;;;;;;1.47;100.00;98562.83;1407290;88;22110;-79
2023/11/25 10:00:17;;;;;;;34.30;18.77;;;;;;;1.50;100.00;98570.38;1459083;88;21785;-79
2023/11/25 10:02:45;;;;;;;32.43;17.97;;;;;;;1.46;100.00;98570.28;1401503;88;21409;-79
2023/11/25 10:05:11;;;;;;;29.73;16.53;;;;;;;1.48;100.00;98574.89;1561942;88;22816;-80
2023/11/25 10:07:38;;;;;;;38.33;19.40;;;;;;;1.48;100.00;98569.20;1403747;88;22027;-79
2023/11/25 10:10:05;;;;;;;35.60;18.20;;;;;;;1.51;100.00;98566.31;1403936;88;21749;-78
2023/11/25 10:12:31;;;;;;;33.43;18.60;;;;;;;1.51;100.00;98566.31;1409278;88;21785;-78
2023/11/25 10:15:00;;;;;;;36.10;20.60;;;;;;;1.56;100.00;98564.13;1475133;88;21820;-80
2023/11/25 10:17:28;;;;;;;37.77;19.83;;;;;;;1.68;100.00;98564.83;1503277;88;22457;-79
2023/11/25 10:20:22;;;;;;;35.23;18.77;;;;;;;1.91;100.00;98569.77;1483964;88;22267;-79
2023/11/25 10:22:53;;;;;;;43.30;22.40;;;;;;;1.91;100.00;98569.77;1477664;88;22060;-79
2023/11/25 10:25:21;;;;;;;41.63;21.00;;;;;;;1.96;100.00;98574.92;1475595;88;22241;-80
2023/11/25 10:27:48;;;;;;;38.00;21.10;;;;;;;2.02;100.00;98561.80;1450027;88;21889;-79
2023/11/25 10:30:17;;;;;;;42.07;21.53;;;;;;;2.05;100.00;98573.75;1480827;88;22297;-80
2023/11/25 10:32:45;;;;;;;43.17;22.67;;;;;;;1.98;100.00;98563.02;1474917;88;22201;-81
2023/11/25 10:35:11;;;;;;;46.47;24.57;;;;;;;2.05;100.00;98571.14;1475391;88;21544;-80
2023/11/25 10:37:41;;;;;;;42.93;24.30;;;;;;;2.09;100.00;98570.70;1480450;88;22996;-80
2023/11/25 10:40:16;;;;;;;52.88;27.30;;;;;;;2.18;100.00;98570.36;1399215;88;22040;-80
2023/11/25 10:42:45;;;;;;;46.73;26.53;;;;;;;2.23;100.00;98576.80;1420790;88;21460;-81
2023/11/25 10:45:18;;;;;;;45.00;23.45;;;;;;;2.30;100.00;98581.47;1407802;88;22226;-80
2023/11/25 10:47:44;;;;;;;40.53;22.23;;;;;;;2.37;100.00;98587.30;1565498;88;21257;-82
2023/11/25 10:50:13;;;;;;;45.60;23.60;;;;;;;2.39;100.00;98591.09;1403581;88;22010;-81
2023/11/25 10:52:44;;;;;;;41.90;23.83;;;;;;;2.33;100.00;98589.86;1401240;88;22014;-79
2023/11/25 10:55:10;;;;;;;44.97;24.47;;;;;;;2.32;100.00;98591.30;1428663;88;22254;-80
2023/11/25 10:57:37;;;;;;;40.57;23.83;;;;;;;2.36;100.00;98582.20;1481668;88;22182;-80
2023/11/25 11:00:12;;;;;;;41.80;24.73;;;;;;;2.41;100.00;98581.31;1482316;88;22135;-81
2023/11/25 11:02:54;;;;;;;47.60;23.93;;;;;;;2.43;100.00;98578.08;1483441;88;22305;-80
2023/11/25 11:05:42;;;;;;;44.50;23.67;;;;;;;2.44;100.00;98581.02;1479068;88;22277;-80
2023/11/25 11:08:22;;;;;;;41.60;23.07;;;;;;;2.42;100.00;98586.41;1475385;88;22157;-80
2023/11/25 11:11:03;;;;;;;41.00;22.97;;;;;;;2.44;100.00;98590.16;1505469;88;22986;-82
2023/11/25 11:13:40;;;;;;;52.53;26.97;;;;;;;2.48;100.00;98583.23;1478297;88;22374;-80
2023/11/25 11:16:12;;;;;;;42.07;22.00;;;;;;;2.51;100.00;98586.04;1476395;88;21691;-80
2023/11/25 11:18:41;;;;;;;42.60;25.67;;;;;;;2.53;100.00;98584.09;1481876;88;22290;-81